sensor_id;sensor_type;location;lat;lon;timestamp;P1;durP1;ratioP1;P2;durP2;ratioP2
4307;SDS011;2167;53.448;9.984;2022-12-18T00:01:17;9.13;;;5.70;;
4307;SDS011;2167;53.448;9.984;2022-12-18T00:04:00;7.78;;;7.03;;
4307;SDS011;2167;53.448;9.984;2022-12-18T00:06:28;8.57;;;5.50;;
4307;SDS011;2167;53.448;9.984;2022-12-18T00:08:55;16.92;;;9.60;;
4307;SDS011;2167;53.448;9.984;2022-12-18T00:11:22;13.95;;;7.25;;
4307;SDS011;2167;53.448;9.984;2022-12-18T00:13:50;17.77;;;7.38;;
4307;SDS011;2167;53.448;9.984;2022-12-18T00:16:18;10.40;;;5.00;;
4307;SDS011;2167;53.448;9.984;2022-12-18T00:18:45;13.48;;;7.78;;
4307;SDS011;2167;53.448;9.984;2022-12-18T00:21:13;13.93;;;6.95;;
4307;SDS011;2167;53.448;9.984;2022-12-18T00:23:41;11.07;;;5.70;;
4307;SDS011;2167;53.448;9.984;2022-12-18T00:26:30;9.85;;;3.05;;
4307;SDS011;2167;53.448;9.984;2022-12-18T00:29:03;4.25;;;3.00;;
4307;SDS011;2167;53.448;9.984;2022-12-18T00:31:34;8.88;;;4.75;;
4307;SDS011;2167;53.448;9.984;2022-12-18T00:34:00;9.32;;;5.28;;
4307;SDS011;2167;53.448;9.984;2022-12-18T00:36:27;8.52;;;5.35;;
4307;SDS011;2167;53.448;9.984;2022-12-18T00:38:59;5.40;;;3.35;;
4307;SDS011;2167;53.448;9.984;2022-12-18T00:41:26;7.70;;;5.20;;
4307;SDS011;2167;53.448;9.984;2022-12-18T00:44:13;13.13;;;9.00;;
4307;SDS011;2167;53.448;9.984;2022-12-18T00:46:40;11.07;;;6.70;;
4307;SDS011;2167;53.448;9.984;2022-12-18T00:49:07;10.57;;;5.35;;
4307;SDS011;2167;53.448;9.984;2022-12-18T00:51:33;12.48;;;5.55;;
4307;SDS011;2167;53.448;9.984;2022-12-18T00:53:59;6.80;;;3.70;;
4307;SDS011;2167;53.448;9.984;2022-12-18T00:56:25;8.40;;;4.50;;
4307;SDS011;2167;53.448;9.984;2022-12-18T00:58:50;10.20;;;5.07;;
4307;SDS011;2167;53.448;9.984;2022-12-18T01:01:16;5.10;;;3.63;;
4307;SDS011;2167;53.448;9.984;2022-12-18T01:03:41;3.57;;;3.23;;
4307;SDS011;2167;53.448;9.984;2022-12-18T01:06:09;4.03;;;3.37;;
4307;SDS011;2167;53.448;9.984;2022-12-18T01:08:37;6.43;;;4.60;;
4307;SDS011;2167;53.448;9.984;2022-12-18T01:11:10;6.18;;;3.92;;
4307;SDS011;2167;53.448;9.984;2022-12-18T01:13:38;8.82;;;5.35;;
4307;SDS011;2167;53.448;9.984;2022-12-18T01:16:04;8.93;;;4.40;;
4307;SDS011;2167;53.448;9.984;2022-12-18T01:18:30;6.80;;;4.93;;
4307;SDS011;2167;53.448;9.984;2022-12-18T01:20:56;5.83;;;3.07;;
4307;SDS011;2167;53.448;9.984;2022-12-18T01:23:28;14.48;;;8.35;;
4307;SDS011;2167;53.448;9.984;2022-12-18T01:25:54;7.28;;;4.65;;
4307;SDS011;2167;53.448;9.984;2022-12-18T01:28:19;5.13;;;4.70;;
4307;SDS011;2167;53.448;9.984;2022-12-18T01:30:45;10.37;;;6.17;;
4307;SDS011;2167;53.448;9.984;2022-12-18T01:33:10;7.77;;;5.00;;
4307;SDS011;2167;53.448;9.984;2022-12-18T01:35:42;13.67;;;7.60;;
4307;SDS011;2167;53.448;9.984;2022-12-18T01:38:08;5.50;;;3.53;;
4307;SDS011;2167;53.448;9.984;2022-12-18T01:40:34;6.50;;;4.70;;
4307;SDS011;2167;53.448;9.984;2022-12-18T01:43:00;7.60;;;4.90;;
4307;SDS011;2167;53.448;9.984;2022-12-18T01:45:27;6.27;;;5.00;;
4307;SDS011;2167;53.448;9.984;2022-12-18T01:48:04;12.77;;;7.03;;
4307;SDS011;2167;53.448;9.984;2022-12-18T01:50:36;8.88;;;6.15;;
4307;SDS011;2167;53.448;9.984;2022-12-18T01:53:10;16.45;;;8.60;;
4307;SDS011;2167;53.448;9.984;2022-12-18T01:55:43;12.45;;;6.32;;
4307;SDS011;2167;53.448;9.984;2022-12-18T01:58:14;4.03;;;3.72;;
4307;SDS011;2167;53.448;9.984;2022-12-18T02:00:41;5.35;;;3.75;;
4307;SDS011;2167;53.448;9.984;2022-12-18T02:03:07;4.87;;;3.60;;
4307;SDS011;2167;53.448;9.984;2022-12-18T02:08:12;8.00;;;4.47;;
4307;SDS011;2167;53.448;9.984;2022-12-18T02:18:47;4.72;;;2.55;;
4307;SDS011;2167;53.448;9.984;2022-12-18T02:21:54;4.95;;;4.65;;
4307;SDS011;2167;53.448;9.984;2022-12-18T02:26:56;3.72;;;2.80;;
4307;SDS011;2167;53.448;9.984;2022-12-18T02:29:26;13.15;;;6.93;;
4307;SDS011;2167;53.448;9.984;2022-12-18T02:32:00;8.43;;;4.75;;
4307;SDS011;2167;53.448;9.984;2022-12-18T02:34:31;7.07;;;3.63;;
4307;SDS011;2167;53.448;9.984;2022-12-18T02:37:00;6.60;;;5.03;;
4307;SDS011;2167;53.448;9.984;2022-12-18T02:39:29;10.73;;;3.22;;
4307;SDS011;2167;53.448;9.984;2022-12-18T02:41:57;5.80;;;4.78;;
4307;SDS011;2167;53.448;9.984;2022-12-18T02:44:24;6.90;;;3.95;;
4307;SDS011;2167;53.448;9.984;2022-12-18T02:46:50;5.40;;;3.97;;
4307;SDS011;2167;53.448;9.984;2022-12-18T03:00:51;4.43;;;4.00;;
4307;SDS011;2167;53.448;9.984;2022-12-18T03:03:28;8.10;;;3.65;;
4307;SDS011;2167;53.448;9.984;2022-12-18T03:08:42;8.02;;;3.50;;
4307;SDS011;2167;53.448;9.984;2022-12-18T03:11:12;10.18;;;4.60;;
4307;SDS011;2167;53.448;9.984;2022-12-18T03:13:41;13.45;;;7.35;;
4307;SDS011;2167;53.448;9.984;2022-12-18T03:16:15;12.05;;;6.15;;
4307;SDS011;2167;53.448;9.984;2022-12-18T03:18:58;5.53;;;4.07;;
4307;SDS011;2167;53.448;9.984;2022-12-18T03:21:38;5.03;;;4.53;;
4307;SDS011;2167;53.448;9.984;2022-12-18T03:24:08;10.05;;;4.20;;
4307;SDS011;2167;53.448;9.984;2022-12-18T03:26:36;4.72;;;3.55;;
4307;SDS011;2167;53.448;9.984;2022-12-18T03:29:08;4.75;;;3.88;;
4307;SDS011;2167;53.448;9.984;2022-12-18T03:31:45;6.03;;;2.70;;
4307;SDS011;2167;53.448;9.984;2022-12-18T03:34:15;2.85;;;2.60;;
4307;SDS011;2167;53.448;9.984;2022-12-18T03:36:46;3.10;;;2.80;;
4307;SDS011;2167;53.448;9.984;2022-12-18T03:39:13;3.17;;;2.63;;
4307;SDS011;2167;53.448;9.984;2022-12-18T03:41:52;8.25;;;4.97;;
4307;SDS011;2167;53.448;9.984;2022-12-18T03:53:00;15.52;;;7.20;;
4307;SDS011;2167;53.448;9.984;2022-12-18T03:55:29;5.93;;;4.05;;
4307;SDS011;2167;53.448;9.984;2022-12-18T03:57:59;6.50;;;5.90;;
4307;SDS011;2167;53.448;9.984;2022-12-18T04:00:26;8.40;;;3.28;;
4307;SDS011;2167;53.448;9.984;2022-12-18T04:02:54;13.02;;;6.80;;
4307;SDS011;2167;53.448;9.984;2022-12-18T04:05:21;5.65;;;4.45;;
4307;SDS011;2167;53.448;9.984;2022-12-18T04:07:51;5.90;;;3.90;;
4307;SDS011;2167;53.448;9.984;2022-12-18T04:10:19;10.07;;;4.82;;
4307;SDS011;2167;53.448;9.984;2022-12-18T04:12:45;6.77;;;4.80;;
4307;SDS011;2167;53.448;9.984;2022-12-18T04:15:11;3.07;;;2.47;;
4307;SDS011;2167;53.448;9.984;2022-12-18T04:17:38;15.15;;;7.90;;
4307;SDS011;2167;53.448;9.984;2022-12-18T04:20:11;10.07;;;6.10;;
4307;SDS011;2167;53.448;9.984;2022-12-18T04:22:36;6.07;;;4.87;;
4307;SDS011;2167;53.448;9.984;2022-12-18T04:25:02;5.40;;;2.80;;
4307;SDS011;2167;53.448;9.984;2022-12-18T04:27:28;9.73;;;4.47;;
4307;SDS011;2167;53.448;9.984;2022-12-18T04:29:54;5.80;;;4.40;;
4307;SDS011;2167;53.448;9.984;2022-12-18T04:32:19;4.40;;;3.20;;
4307;SDS011;2167;53.448;9.984;2022-12-18T04:34:45;3.10;;;1.83;;
4307;SDS011;2167;53.448;9.984;2022-12-18T04:37:11;6.57;;;5.10;;
4307;SDS011;2167;53.448;9.984;2022-12-18T04:39:36;5.60;;;3.70;;
4307;SDS011;2167;53.448;9.984;2022-12-18T04:42:02;3.20;;;2.17;;
4307;SDS011;2167;53.448;9.984;2022-12-18T04:44:28;11.80;;;5.37;;
4307;SDS011;2167;53.448;9.984;2022-12-18T04:46:53;6.07;;;3.17;;
4307;SDS011;2167;53.448;9.984;2022-12-18T04:49:19;4.37;;;3.97;;
4307;SDS011;2167;53.448;9.984;2022-12-18T04:51:44;5.67;;;5.00;;
4307;SDS011;2167;53.448;9.984;2022-12-18T04:54:10;5.70;;;5.20;;
4307;SDS011;2167;53.448;9.984;2022-12-18T04:56:35;4.87;;;4.40;;
4307;SDS011;2167;53.448;9.984;2022-12-18T04:59:01;6.83;;;5.60;;
4307;SDS011;2167;53.448;9.984;2022-12-18T05:01:26;4.30;;;3.90;;
4307;SDS011;2167;53.448;9.984;2022-12-18T05:03:52;6.83;;;4.63;;
4307;SDS011;2167;53.448;9.984;2022-12-18T05:06:18;9.27;;;6.97;;
4307;SDS011;2167;53.448;9.984;2022-12-18T05:08:43;10.27;;;5.97;;
4307;SDS011;2167;53.448;9.984;2022-12-18T05:11:10;8.67;;;3.73;;
4307;SDS011;2167;53.448;9.984;2022-12-18T05:13:40;12.85;;;6.85;;
4307;SDS011;2167;53.448;9.984;2022-12-18T05:16:07;9.00;;;4.78;;
4307;SDS011;2167;53.448;9.984;2022-12-18T05:18:33;6.45;;;4.65;;
4307;SDS011;2167;53.448;9.984;2022-12-18T05:20:59;2.67;;;1.90;;
4307;SDS011;2167;53.448;9.984;2022-12-18T05:23:25;6.90;;;5.13;;
4307;SDS011;2167;53.448;9.984;2022-12-18T05:25:52;5.75;;;5.32;;
4307;SDS011;2167;53.448;9.984;2022-12-18T05:28:22;5.03;;;2.78;;
4307;SDS011;2167;53.448;9.984;2022-12-18T05:30:53;6.13;;;3.72;;
4307;SDS011;2167;53.448;9.984;2022-12-18T05:33:21;3.03;;;1.92;;
4307;SDS011;2167;53.448;9.984;2022-12-18T05:35:51;1.83;;;1.73;;
4307;SDS011;2167;53.448;9.984;2022-12-18T05:38:18;3.72;;;2.72;;
4307;SDS011;2167;53.448;9.984;2022-12-18T05:40:44;4.47;;;4.03;;
4307;SDS011;2167;53.448;9.984;2022-12-18T05:43:10;5.90;;;5.43;;
4307;SDS011;2167;53.448;9.984;2022-12-18T05:45:37;7.95;;;2.25;;
4307;SDS011;2167;53.448;9.984;2022-12-18T05:48:04;4.22;;;2.47;;
4307;SDS011;2167;53.448;9.984;2022-12-18T05:50:30;3.40;;;3.10;;
4307;SDS011;2167;53.448;9.984;2022-12-18T05:52:55;1.57;;;1.47;;
4307;SDS011;2167;53.448;9.984;2022-12-18T05:55:21;7.00;;;3.10;;
4307;SDS011;2167;53.448;9.984;2022-12-18T05:57:47;7.17;;;5.13;;
4307;SDS011;2167;53.448;9.984;2022-12-18T06:00:14;9.70;;;4.13;;
4307;SDS011;2167;53.448;9.984;2022-12-18T06:02:40;8.02;;;3.50;;
4307;SDS011;2167;53.448;9.984;2022-12-18T06:05:06;5.27;;;4.20;;
4307;SDS011;2167;53.448;9.984;2022-12-18T06:07:32;4.13;;;3.73;;
4307;SDS011;2167;53.448;9.984;2022-12-18T06:09:58;6.80;;;2.97;;
4307;SDS011;2167;53.448;9.984;2022-12-18T06:12:23;11.30;;;6.30;;
4307;SDS011;2167;53.448;9.984;2022-12-18T06:14:49;10.20;;;6.83;;
4307;SDS011;2167;53.448;9.984;2022-12-18T06:17:14;4.37;;;3.63;;
4307;SDS011;2167;53.448;9.984;2022-12-18T06:19:40;9.40;;;4.03;;
4307;SDS011;2167;53.448;9.984;2022-12-18T06:22:05;14.27;;;7.15;;
4307;SDS011;2167;53.448;9.984;2022-12-18T06:24:31;6.67;;;5.50;;
4307;SDS011;2167;53.448;9.984;2022-12-18T06:26:58;4.78;;;3.33;;
4307;SDS011;2167;53.448;9.984;2022-12-18T06:29:23;12.40;;;4.17;;
4307;SDS011;2167;53.448;9.984;2022-12-18T06:31:50;3.53;;;3.23;;
4307;SDS011;2167;53.448;9.984;2022-12-18T06:34:16;1.90;;;1.70;;
4307;SDS011;2167;53.448;9.984;2022-12-18T06:36:41;2.17;;;2.07;;
4307;SDS011;2167;53.448;9.984;2022-12-18T06:39:08;1.67;;;1.60;;
4307;SDS011;2167;53.448;9.984;2022-12-18T06:41:33;3.95;;;3.28;;
4307;SDS011;2167;53.448;9.984;2022-12-18T06:43:59;3.97;;;2.57;;
4307;SDS011;2167;53.448;9.984;2022-12-18T06:46:25;8.52;;;3.85;;
4307;SDS011;2167;53.448;9.984;2022-12-18T06:48:51;4.07;;;3.37;;
4307;SDS011;2167;53.448;9.984;2022-12-18T06:51:20;17.40;;;8.93;;
4307;SDS011;2167;53.448;9.984;2022-12-18T06:53:47;13.38;;;6.70;;
4307;SDS011;2167;53.448;9.984;2022-12-18T06:56:13;12.17;;;5.90;;
4307;SDS011;2167;53.448;9.984;2022-12-18T06:58:39;4.40;;;2.30;;
4307;SDS011;2167;53.448;9.984;2022-12-18T07:01:06;4.10;;;1.90;;
4307;SDS011;2167;53.448;9.984;2022-12-18T07:03:33;2.00;;;1.42;;
4307;SDS011;2167;53.448;9.984;2022-12-18T07:05:59;8.87;;;3.50;;
4307;SDS011;2167;53.448;9.984;2022-12-18T07:08:25;2.67;;;1.90;;
4307;SDS011;2167;53.448;9.984;2022-12-18T07:10:51;4.97;;;4.38;;
4307;SDS011;2167;53.448;9.984;2022-12-18T07:13:17;6.05;;;3.70;;
4307;SDS011;2167;53.448;9.984;2022-12-18T07:15:43;7.33;;;2.50;;
4307;SDS011;2167;53.448;9.984;2022-12-18T07:18:09;12.63;;;3.87;;
4307;SDS011;2167;53.448;9.984;2022-12-18T07:20:35;2.33;;;1.93;;
4307;SDS011;2167;53.448;9.984;2022-12-18T07:23:04;10.23;;;4.63;;
4307;SDS011;2167;53.448;9.984;2022-12-18T07:25:33;8.38;;;3.83;;
4307;SDS011;2167;53.448;9.984;2022-12-18T07:27:59;4.90;;;3.20;;
4307;SDS011;2167;53.448;9.984;2022-12-18T07:30:25;4.68;;;4.18;;
4307;SDS011;2167;53.448;9.984;2022-12-18T07:32:51;3.93;;;2.73;;
4307;SDS011;2167;53.448;9.984;2022-12-18T07:35:16;13.55;;;8.60;;
4307;SDS011;2167;53.448;9.984;2022-12-18T07:37:42;9.20;;;3.33;;
4307;SDS011;2167;53.448;9.984;2022-12-18T07:40:08;4.67;;;3.30;;
4307;SDS011;2167;53.448;9.984;2022-12-18T07:42:34;15.00;;;7.60;;
4307;SDS011;2167;53.448;9.984;2022-12-18T07:45:01;13.18;;;7.20;;
4307;SDS011;2167;53.448;9.984;2022-12-18T07:47:34;13.18;;;4.35;;
4307;SDS011;2167;53.448;9.984;2022-12-18T07:50:01;4.35;;;4.00;;
4307;SDS011;2167;53.448;9.984;2022-12-18T07:52:28;12.15;;;7.78;;
4307;SDS011;2167;53.448;9.984;2022-12-18T07:54:53;13.03;;;7.53;;
4307;SDS011;2167;53.448;9.984;2022-12-18T07:57:19;8.20;;;6.00;;
4307;SDS011;2167;53.448;9.984;2022-12-18T07:59:44;4.20;;;3.23;;
4307;SDS011;2167;53.448;9.984;2022-12-18T08:02:10;7.03;;;4.57;;
4307;SDS011;2167;53.448;9.984;2022-12-18T08:04:35;9.60;;;4.70;;
4307;SDS011;2167;53.448;9.984;2022-12-18T08:07:01;10.47;;;3.70;;
4307;SDS011;2167;53.448;9.984;2022-12-18T08:09:27;4.03;;;3.13;;
4307;SDS011;2167;53.448;9.984;2022-12-18T08:11:52;11.83;;;6.40;;
4307;SDS011;2167;53.448;9.984;2022-12-18T08:14:18;6.32;;;4.85;;
4307;SDS011;2167;53.448;9.984;2022-12-18T08:16:44;4.93;;;4.33;;
4307;SDS011;2167;53.448;9.984;2022-12-18T08:19:09;14.82;;;7.45;;
4307;SDS011;2167;53.448;9.984;2022-12-18T08:21:35;10.70;;;8.00;;
4307;SDS011;2167;53.448;9.984;2022-12-18T08:24:00;7.93;;;5.27;;
4307;SDS011;2167;53.448;9.984;2022-12-18T08:26:27;9.40;;;4.90;;
4307;SDS011;2167;53.448;9.984;2022-12-18T08:28:55;9.80;;;7.32;;
4307;SDS011;2167;53.448;9.984;2022-12-18T08:31:22;12.73;;;7.38;;
4307;SDS011;2167;53.448;9.984;2022-12-18T08:33:49;6.57;;;4.88;;
4307;SDS011;2167;53.448;9.984;2022-12-18T08:36:15;6.57;;;3.95;;
4307;SDS011;2167;53.448;9.984;2022-12-18T08:38:43;6.70;;;6.05;;
4307;SDS011;2167;53.448;9.984;2022-12-18T08:41:10;6.30;;;4.17;;
4307;SDS011;2167;53.448;9.984;2022-12-18T08:43:38;6.65;;;4.35;;
4307;SDS011;2167;53.448;9.984;2022-12-18T08:46:25;15.70;;;8.93;;
4307;SDS011;2167;53.448;9.984;2022-12-18T08:48:57;7.38;;;4.65;;
4307;SDS011;2167;53.448;9.984;2022-12-18T08:51:23;6.50;;;5.37;;
4307;SDS011;2167;53.448;9.984;2022-12-18T08:53:52;6.53;;;5.53;;
4307;SDS011;2167;53.448;9.984;2022-12-18T08:56:20;4.95;;;3.25;;
4307;SDS011;2167;53.448;9.984;2022-12-18T08:58:45;6.57;;;4.20;;
4307;SDS011;2167;53.448;9.984;2022-12-18T09:01:11;3.40;;;3.10;;
4307;SDS011;2167;53.448;9.984;2022-12-18T09:03:39;4.30;;;2.95;;
4307;SDS011;2167;53.448;9.984;2022-12-18T09:06:06;12.23;;;7.53;;
4307;SDS011;2167;53.448;9.984;2022-12-18T09:08:35;8.95;;;6.05;;
4307;SDS011;2167;53.448;9.984;2022-12-18T09:11:01;8.90;;;4.45;;
4307;SDS011;2167;53.448;9.984;2022-12-18T09:13:28;18.02;;;8.02;;
4307;SDS011;2167;53.448;9.984;2022-12-18T09:15:54;13.15;;;7.35;;
4307;SDS011;2167;53.448;9.984;2022-12-18T09:18:21;10.35;;;4.25;;
4307;SDS011;2167;53.448;9.984;2022-12-18T09:20:50;7.35;;;5.38;;
4307;SDS011;2167;53.448;9.984;2022-12-18T09:23:17;17.25;;;7.78;;
4307;SDS011;2167;53.448;9.984;2022-12-18T09:25:43;11.13;;;6.43;;
4307;SDS011;2167;53.448;9.984;2022-12-18T09:28:10;6.63;;;4.13;;
4307;SDS011;2167;53.448;9.984;2022-12-18T09:30:45;8.88;;;4.70;;
4307;SDS011;2167;53.448;9.984;2022-12-18T09:33:16;9.25;;;6.97;;
4307;SDS011;2167;53.448;9.984;2022-12-18T09:35:42;9.02;;;4.95;;
4307;SDS011;2167;53.448;9.984;2022-12-18T09:38:11;5.57;;;4.10;;
4307;SDS011;2167;53.448;9.984;2022-12-18T09:40:48;6.07;;;5.38;;
4307;SDS011;2167;53.448;9.984;2022-12-18T09:43:22;8.15;;;5.28;;
4307;SDS011;2167;53.448;9.984;2022-12-18T09:45:53;6.82;;;2.83;;
4307;SDS011;2167;53.448;9.984;2022-12-18T09:48:35;6.22;;;5.03;;
4307;SDS011;2167;53.448;9.984;2022-12-18T09:51:17;5.18;;;3.63;;
4307;SDS011;2167;53.448;9.984;2022-12-18T09:53:54;11.00;;;7.03;;
4307;SDS011;2167;53.448;9.984;2022-12-18T09:56:24;6.30;;;4.53;;
4307;SDS011;2167;53.448;9.984;2022-12-18T09:58:55;7.65;;;4.15;;
4307;SDS011;2167;53.448;9.984;2022-12-18T10:01:26;10.07;;;6.40;;
4307;SDS011;2167;53.448;9.984;2022-12-18T10:03:54;5.80;;;5.25;;
4307;SDS011;2167;53.448;9.984;2022-12-18T10:06:36;11.55;;;4.63;;
4307;SDS011;2167;53.448;9.984;2022-12-18T10:12:30;13.70;;;7.55;;
4307;SDS011;2167;53.448;9.984;2022-12-18T10:14:57;11.48;;;7.90;;
4307;SDS011;2167;53.448;9.984;2022-12-18T10:18:35;11.25;;;6.40;;
4307;SDS011;2167;53.448;9.984;2022-12-18T10:20:54;10.55;;;5.57;;
4307;SDS011;2167;53.448;9.984;2022-12-18T10:26:04;18.15;;;9.13;;
4307;SDS011;2167;53.448;9.984;2022-12-18T10:28:32;11.70;;;7.05;;
4307;SDS011;2167;53.448;9.984;2022-12-18T10:31:00;17.90;;;5.63;;
4307;SDS011;2167;53.448;9.984;2022-12-18T10:33:32;14.55;;;7.85;;
4307;SDS011;2167;53.448;9.984;2022-12-18T10:35:59;10.13;;;6.63;;
4307;SDS011;2167;53.448;9.984;2022-12-18T10:38:29;13.03;;;6.67;;
4307;SDS011;2167;53.448;9.984;2022-12-18T10:41:03;15.15;;;8.57;;
4307;SDS011;2167;53.448;9.984;2022-12-18T10:43:32;10.70;;;7.93;;
4307;SDS011;2167;53.448;9.984;2022-12-18T10:46:00;9.03;;;6.60;;
4307;SDS011;2167;53.448;9.984;2022-12-18T10:48:30;10.43;;;6.00;;
4307;SDS011;2167;53.448;9.984;2022-12-18T10:50:58;23.80;;;11.37;;
4307;SDS011;2167;53.448;9.984;2022-12-18T10:53:28;19.50;;;13.00;;
4307;SDS011;2167;53.448;9.984;2022-12-18T10:56:00;25.30;;;13.70;;
4307;SDS011;2167;53.448;9.984;2022-12-18T10:58:30;14.03;;;9.07;;
4307;SDS011;2167;53.448;9.984;2022-12-18T11:01:08;6.90;;;4.80;;
4307;SDS011;2167;53.448;9.984;2022-12-18T11:06:27;4.83;;;3.83;;
4307;SDS011;2167;53.448;9.984;2022-12-18T11:09:00;15.57;;;8.65;;
4307;SDS011;2167;53.448;9.984;2022-12-18T11:11:28;9.87;;;7.93;;
4307;SDS011;2167;53.448;9.984;2022-12-18T11:14:12;13.60;;;6.38;;
4307;SDS011;2167;53.448;9.984;2022-12-18T11:16:50;12.20;;;5.90;;
4307;SDS011;2167;53.448;9.984;2022-12-18T11:21:56;10.47;;;5.30;;
4307;SDS011;2167;53.448;9.984;2022-12-18T11:24:26;19.38;;;10.80;;
4307;SDS011;2167;53.448;9.984;2022-12-18T11:26:53;15.40;;;7.40;;
4307;SDS011;2167;53.448;9.984;2022-12-18T11:29:23;13.32;;;6.30;;
4307;SDS011;2167;53.448;9.984;2022-12-18T11:32:06;11.43;;;5.70;;
4307;SDS011;2167;53.448;9.984;2022-12-18T11:37:54;8.50;;;4.50;;
4307;SDS011;2167;53.448;9.984;2022-12-18T11:40:30;7.00;;;4.97;;
4307;SDS011;2167;53.448;9.984;2022-12-18T11:45:33;16.98;;;8.82;;
4307;SDS011;2167;53.448;9.984;2022-12-18T11:48:04;9.07;;;6.50;;
4307;SDS011;2167;53.448;9.984;2022-12-18T11:53:11;12.60;;;6.25;;
4307;SDS011;2167;53.448;9.984;2022-12-18T11:58:25;13.77;;;7.70;;
4307;SDS011;2167;53.448;9.984;2022-12-18T12:04:10;10.60;;;5.90;;
4307;SDS011;2167;53.448;9.984;2022-12-18T12:12:37;14.65;;;8.18;;
4307;SDS011;2167;53.448;9.984;2022-12-18T12:15:34;14.30;;;7.80;;
4307;SDS011;2167;53.448;9.984;2022-12-18T12:18:26;16.13;;;6.63;;
4307;SDS011;2167;53.448;9.984;2022-12-18T12:21:12;7.80;;;4.90;;
4307;SDS011;2167;53.448;9.984;2022-12-18T12:23:47;11.40;;;5.47;;
4307;SDS011;2167;53.448;9.984;2022-12-18T12:26:16;10.80;;;6.93;;
4307;SDS011;2167;53.448;9.984;2022-12-18T12:34:39;18.85;;;10.30;;
4307;SDS011;2167;53.448;9.984;2022-12-18T12:40:03;15.70;;;9.97;;
4307;SDS011;2167;53.448;9.984;2022-12-18T12:42:39;14.13;;;9.00;;
4307;SDS011;2167;53.448;9.984;2022-12-18T12:45:36;14.55;;;9.00;;
4307;SDS011;2167;53.448;9.984;2022-12-18T12:48:49;16.80;;;7.53;;
4307;SDS011;2167;53.448;9.984;2022-12-18T12:53:46;11.23;;;7.20;;
4307;SDS011;2167;53.448;9.984;2022-12-18T12:56:13;20.38;;;9.88;;
4307;SDS011;2167;53.448;9.984;2022-12-18T12:58:45;22.90;;;9.10;;
4307;SDS011;2167;53.448;9.984;2022-12-18T13:04:22;18.80;;;8.10;;
4307;SDS011;2167;53.448;9.984;2022-12-18T13:07:16;10.77;;;5.50;;
4307;SDS011;2167;53.448;9.984;2022-12-18T13:18:18;14.90;;;7.43;;
4307;SDS011;2167;53.448;9.984;2022-12-18T13:26:34;20.65;;;9.50;;
4307;SDS011;2167;53.448;9.984;2022-12-18T13:31:11;17.38;;;8.07;;
4307;SDS011;2167;53.448;9.984;2022-12-18T13:33:43;8.77;;;6.67;;
4307;SDS011;2167;53.448;9.984;2022-12-18T13:38:47;12.27;;;7.60;;
4307;SDS011;2167;53.448;9.984;2022-12-18T13:41:33;23.13;;;11.75;;
4307;SDS011;2167;53.448;9.984;2022-12-18T13:44:10;18.30;;;9.30;;
4307;SDS011;2167;53.448;9.984;2022-12-18T13:46:55;23.57;;;8.67;;
4307;SDS011;2167;53.448;9.984;2022-12-18T13:49:25;8.40;;;6.90;;
4307;SDS011;2167;53.448;9.984;2022-12-18T13:52:24;23.85;;;11.57;;
4307;SDS011;2167;53.448;9.984;2022-12-18T13:54:52;24.88;;;11.65;;
4307;SDS011;2167;53.448;9.984;2022-12-18T14:02:46;13.00;;;7.27;;
4307;SDS011;2167;53.448;9.984;2022-12-18T14:05:26;10.93;;;8.20;;
4307;SDS011;2167;53.448;9.984;2022-12-18T14:08:14;23.85;;;11.75;;
4307;SDS011;2167;53.448;9.984;2022-12-18T14:10:41;17.50;;;7.47;;
4307;SDS011;2167;53.448;9.984;2022-12-18T14:13:21;19.13;;;10.05;;
4307;SDS011;2167;53.448;9.984;2022-12-18T14:15:51;13.67;;;8.20;;
4307;SDS011;2167;53.448;9.984;2022-12-18T14:20:52;13.80;;;7.50;;
4307;SDS011;2167;53.448;9.984;2022-12-18T14:23:40;28.03;;;9.40;;
4307;SDS011;2167;53.448;9.984;2022-12-18T14:29:21;12.70;;;7.63;;
4307;SDS011;2167;53.448;9.984;2022-12-18T14:32:03;19.73;;;9.30;;
4307;SDS011;2167;53.448;9.984;2022-12-18T14:34:49;17.33;;;8.18;;
4307;SDS011;2167;53.448;9.984;2022-12-18T14:37:17;19.30;;;7.57;;
4307;SDS011;2167;53.448;9.984;2022-12-18T14:39:53;14.90;;;8.93;;
4307;SDS011;2167;53.448;9.984;2022-12-18T14:42:24;25.98;;;13.07;;
4307;SDS011;2167;53.448;9.984;2022-12-18T14:45:31;21.43;;;8.90;;
4307;SDS011;2167;53.448;9.984;2022-12-18T14:47:57;19.55;;;10.25;;
4307;SDS011;2167;53.448;9.984;2022-12-18T14:50:23;18.50;;;8.77;;
4307;SDS011;2167;53.448;9.984;2022-12-18T14:52:49;23.87;;;10.30;;
4307;SDS011;2167;53.448;9.984;2022-12-18T14:55:19;65.27;;;24.10;;
4307;SDS011;2167;53.448;9.984;2022-12-18T14:57:49;54.13;;;21.73;;
4307;SDS011;2167;53.448;9.984;2022-12-18T15:00:19;22.60;;;11.27;;
4307;SDS011;2167;53.448;9.984;2022-12-18T15:02:47;38.37;;;15.73;;
4307;SDS011;2167;53.448;9.984;2022-12-18T15:05:18;19.87;;;9.60;;
4307;SDS011;2167;53.448;9.984;2022-12-18T15:07:47;34.08;;;15.88;;
4307;SDS011;2167;53.448;9.984;2022-12-18T15:20:26;30.40;;;11.83;;
4307;SDS011;2167;53.448;9.984;2022-12-18T15:22:52;21.87;;;12.73;;
4307;SDS011;2167;53.448;9.984;2022-12-18T15:25:31;57.97;;;16.60;;
4307;SDS011;2167;53.448;9.984;2022-12-18T15:27:59;46.55;;;19.45;;
4307;SDS011;2167;53.448;9.984;2022-12-18T15:30:25;37.60;;;15.03;;
4307;SDS011;2167;53.448;9.984;2022-12-18T15:32:52;15.90;;;10.57;;
4307;SDS011;2167;53.448;9.984;2022-12-18T15:35:38;21.17;;;11.07;;
4307;SDS011;2167;53.448;9.984;2022-12-18T15:38:04;33.75;;;17.58;;
4307;SDS011;2167;53.448;9.984;2022-12-18T15:40:29;25.37;;;12.97;;
4307;SDS011;2167;53.448;9.984;2022-12-18T15:42:55;33.73;;;17.20;;
4307;SDS011;2167;53.448;9.984;2022-12-18T15:45:43;32.40;;;14.15;;
4307;SDS011;2167;53.448;9.984;2022-12-18T15:48:19;21.73;;;11.03;;
4307;SDS011;2167;53.448;9.984;2022-12-18T15:50:46;22.67;;;10.57;;
4307;SDS011;2167;53.448;9.984;2022-12-18T15:53:12;42.05;;;16.77;;
4307;SDS011;2167;53.448;9.984;2022-12-18T15:55:38;19.30;;;10.33;;
4307;SDS011;2167;53.448;9.984;2022-12-18T15:58:22;17.43;;;11.47;;
4307;SDS011;2167;53.448;9.984;2022-12-18T16:00:47;16.27;;;9.43;;
4307;SDS011;2167;53.448;9.984;2022-12-18T16:03:13;23.65;;;10.93;;
4307;SDS011;2167;53.448;9.984;2022-12-18T16:05:39;25.63;;;10.07;;
4307;SDS011;2167;53.448;9.984;2022-12-18T16:08:04;27.63;;;11.03;;
4307;SDS011;2167;53.448;9.984;2022-12-18T16:10:30;24.07;;;12.20;;
4307;SDS011;2167;53.448;9.984;2022-12-18T16:12:56;25.40;;;9.40;;
4307;SDS011;2167;53.448;9.984;2022-12-18T16:15:21;18.00;;;8.33;;
4307;SDS011;2167;53.448;9.984;2022-12-18T16:17:47;19.83;;;8.63;;
4307;SDS011;2167;53.448;9.984;2022-12-18T16:20:14;18.57;;;9.90;;
4307;SDS011;2167;53.448;9.984;2022-12-18T16:22:41;27.45;;;14.15;;
4307;SDS011;2167;53.448;9.984;2022-12-18T16:25:14;18.17;;;9.10;;
4307;SDS011;2167;53.448;9.984;2022-12-18T16:27:46;23.83;;;9.17;;
4307;SDS011;2167;53.448;9.984;2022-12-18T16:30:14;25.02;;;14.88;;
4307;SDS011;2167;53.448;9.984;2022-12-18T16:32:40;27.88;;;9.35;;
4307;SDS011;2167;53.448;9.984;2022-12-18T16:35:08;25.63;;;11.73;;
4307;SDS011;2167;53.448;9.984;2022-12-18T16:37:35;12.67;;;7.77;;
4307;SDS011;2167;53.448;9.984;2022-12-18T16:40:05;16.00;;;9.32;;
4307;SDS011;2167;53.448;9.984;2022-12-18T16:42:35;16.90;;;7.23;;
4307;SDS011;2167;53.448;9.984;2022-12-18T16:45:03;14.43;;;8.50;;
4307;SDS011;2167;53.448;9.984;2022-12-18T16:47:30;20.03;;;6.30;;
4307;SDS011;2167;53.448;9.984;2022-12-18T16:49:56;19.83;;;10.70;;
4307;SDS011;2167;53.448;9.984;2022-12-18T16:52:22;29.65;;;13.35;;
4307;SDS011;2167;53.448;9.984;2022-12-18T16:54:48;22.90;;;9.83;;
4307;SDS011;2167;53.448;9.984;2022-12-18T16:57:14;16.57;;;9.20;;
4307;SDS011;2167;53.448;9.984;2022-12-18T16:59:41;17.00;;;7.80;;
4307;SDS011;2167;53.448;9.984;2022-12-18T17:02:14;21.63;;;12.17;;
4307;SDS011;2167;53.448;9.984;2022-12-18T17:04:45;30.33;;;10.10;;
4307;SDS011;2167;53.448;9.984;2022-12-18T17:07:12;14.17;;;8.67;;
4307;SDS011;2167;53.448;9.984;2022-12-18T17:09:38;14.13;;;8.60;;
4307;SDS011;2167;53.448;9.984;2022-12-18T17:12:04;15.35;;;8.35;;
4307;SDS011;2167;53.448;9.984;2022-12-18T17:14:31;13.03;;;7.77;;
4307;SDS011;2167;53.448;9.984;2022-12-18T17:17:01;20.93;;;9.50;;
4307;SDS011;2167;53.448;9.984;2022-12-18T17:19:27;25.63;;;13.15;;
4307;SDS011;2167;53.448;9.984;2022-12-18T17:21:53;17.80;;;8.43;;
4307;SDS011;2167;53.448;9.984;2022-12-18T17:24:21;27.10;;;13.33;;